createdAt,value
2023-07-24T00:00:37.408Z,22.64
2023-07-24T00:04:40.753Z,22.65
2023-07-24T00:08:44.106Z,22.81
2023-07-24T00:12:48.919Z,22.31
2023-07-24T00:16:53.298Z,22.43
2023-07-24T00:20:56.776Z,22.65
2023-07-24T00:25:00.332Z,22.16
2023-07-24T00:29:04.988Z,22.55
2023-07-24T00:33:08.447Z,22.46
2023-07-24T00:37:11.761Z,21.98
2023-07-24T00:41:18.383Z,22.21
2023-07-24T00:45:24.795Z,21.99
2023-07-24T00:49:28.620Z,21.89
2023-07-24T00:53:31.996Z,21.96
2023-07-24T00:57:35.885Z,21.86
2023-07-24T01:01:44.065Z,21.93
2023-07-24T01:05:47.593Z,21.88
2023-07-24T01:09:52.299Z,21.60
2023-07-24T01:14:01.942Z,21.52
2023-07-24T01:18:11.641Z,21.64
2023-07-24T01:22:22.252Z,21.43
2023-07-24T01:26:28.255Z,21.61
2023-07-24T01:30:31.970Z,21.51
2023-07-24T01:39:06.847Z,21.30
2023-07-24T01:43:11.625Z,21.22
2023-07-24T01:47:14.994Z,21.15
2023-07-24T01:51:18.697Z,21.14
2023-07-24T01:55:21.851Z,21.13
2023-07-24T01:59:27.421Z,21.12
2023-07-24T02:03:30.701Z,21.10
2023-07-24T02:07:33.778Z,21.08
2023-07-24T02:11:37.088Z,21.07
2023-07-24T02:15:41.900Z,21.07
2023-07-24T02:19:45.465Z,21.03
2023-07-24T02:23:48.609Z,20.98
2023-07-24T02:27:52.344Z,20.93
2023-07-24T02:31:57.614Z,20.90
2023-07-24T02:36:01.208Z,20.84
2023-07-24T02:40:04.415Z,20.80
2023-07-24T02:44:07.652Z,20.77
2023-07-24T02:48:12.626Z,20.73
2023-07-24T02:52:16.237Z,20.69
2023-07-24T02:56:19.699Z,20.62
2023-07-24T03:00:23.008Z,20.56
2023-07-24T03:04:27.805Z,20.51
2023-07-24T03:08:31.558Z,20.46
2023-07-24T03:12:34.860Z,20.43
2023-07-24T03:16:38.480Z,20.41
2023-07-24T03:20:43.058Z,20.39
2023-07-24T03:24:46.738Z,20.38
2023-07-24T03:28:50.267Z,20.37
2023-07-24T03:32:54.006Z,20.36
2023-07-24T03:36:58.597Z,20.35
2023-07-24T03:41:01.893Z,20.35
2023-07-24T03:45:05.592Z,20.37
2023-07-24T03:49:09.334Z,20.41
2023-07-24T03:53:13.814Z,20.44
2023-07-24T03:57:16.979Z,20.46
2023-07-24T04:01:20.013Z,20.48
2023-07-24T04:05:23.384Z,20.48
2023-07-24T04:09:27.899Z,20.47
2023-07-24T04:13:31.273Z,20.46
2023-07-24T04:17:34.464Z,20.44
2023-07-24T04:21:38.085Z,20.42
2023-07-24T04:25:42.700Z,20.40
2023-07-24T04:29:45.813Z,20.39
2023-07-24T04:33:48.820Z,20.39
2023-07-24T04:37:52.763Z,20.44
2023-07-24T04:41:57.435Z,20.51
2023-07-24T04:46:00.685Z,20.62
2023-07-24T04:50:03.820Z,20.80
2023-07-24T04:54:07.238Z,20.98
2023-07-24T04:58:12.115Z,21.20
2023-07-24T05:02:15.538Z,21.44
2023-07-24T05:06:18.565Z,21.70
2023-07-24T05:10:22.085Z,21.96
2023-07-24T05:14:26.891Z,22.18
2023-07-24T05:18:30.314Z,22.34
2023-07-24T05:22:33.489Z,22.46
2023-07-24T05:26:36.853Z,22.61
2023-07-24T05:30:41.708Z,22.75
2023-07-24T05:34:46.520Z,22.89
2023-07-24T05:38:49.675Z,23.06
2023-07-24T05:42:52.899Z,23.25
2023-07-24T05:46:57.762Z,23.48
2023-07-24T05:51:01.513Z,23.74
2023-07-24T05:55:05.575Z,24.08
2023-07-24T05:59:09.228Z,24.46
2023-07-24T06:03:14.919Z,24.84
2023-07-24T06:07:18.338Z,25.18
2023-07-24T06:11:21.480Z,25.44
2023-07-24T06:15:24.490Z,25.57
2023-07-24T06:19:28.926Z,25.58
2023-07-24T06:23:31.867Z,25.60
2023-07-24T06:27:34.986Z,25.75
2023-07-24T06:31:38.934Z,26.00
2023-07-24T06:35:43.717Z,26.23
2023-07-24T06:39:47.017Z,26.36
2023-07-24T06:43:50.101Z,26.46
2023-07-24T06:47:53.461Z,26.62
2023-07-24T06:51:57.983Z,26.80
2023-07-24T06:56:01.293Z,26.99
2023-07-24T07:00:04.741Z,27.24
2023-07-24T07:04:07.991Z,27.42
2023-07-24T07:08:12.641Z,27.57
2023-07-24T07:12:15.737Z,27.85
2023-07-24T07:16:20.288Z,28.28
2023-07-24T07:20:23.854Z,28.68
2023-07-24T07:24:28.396Z,28.75
2023-07-24T07:28:31.923Z,28.83
2023-07-24T07:32:35.204Z,29.22
2023-07-24T07:36:38.407Z,29.62
2023-07-24T07:40:42.987Z,29.78
2023-07-24T07:44:46.410Z,30.48
2023-07-24T07:48:50.318Z,30.73
2023-07-24T07:52:54.538Z,31.22
2023-07-24T07:56:59.027Z,31.71
2023-07-24T08:01:06.265Z,31.97
2023-07-24T08:05:15.152Z,32.26
2023-07-24T08:09:25.536Z,32.40
2023-07-24T08:13:30.135Z,32.89
2023-07-24T08:17:33.349Z,33.13
2023-07-24T08:21:36.913Z,33.22
2023-07-24T08:25:40.092Z,33.52
2023-07-24T08:29:44.796Z,33.70
2023-07-24T08:33:48.298Z,33.97
2023-07-24T08:37:51.678Z,34.19
2023-07-24T08:41:54.800Z,34.43
2023-07-24T08:46:01.013Z,34.80
2023-07-24T08:50:05.003Z,35.20
2023-07-24T08:54:09.382Z,35.86
2023-07-24T08:58:12.687Z,36.30
2023-07-24T09:02:17.007Z,36.76
2023-07-24T09:06:20.107Z,37.17
2023-07-24T09:10:27.163Z,37.58
2023-07-24T09:14:32.785Z,37.97
2023-07-24T09:18:44.612Z,38.36
2023-07-24T09:23:10.499Z,38.54
2023-07-24T09:27:15.235Z,38.74
2023-07-24T09:31:18.425Z,38.86
2023-07-24T09:35:27.196Z,38.88
2023-07-24T09:39:30.687Z,38.80
2023-07-24T09:43:40.441Z,38.62
2023-07-24T09:51:57.119Z,38.22
2023-07-24T09:56:01.878Z,38.05
2023-07-24T10:00:06.133Z,37.92
2023-07-24T10:04:10.403Z,37.76
2023-07-24T10:08:16.947Z,37.48
2023-07-24T10:12:21.182Z,37.11
2023-07-24T10:16:24.556Z,36.74
2023-07-24T10:20:35.789Z,36.48
2023-07-24T10:24:42.915Z,36.33
2023-07-24T10:28:48.955Z,36.21
2023-07-24T10:32:55.839Z,36.19
2023-07-24T10:37:04.798Z,36.40
2023-07-24T10:41:10.600Z,36.74
2023-07-24T10:45:14.422Z,37.16
2023-07-24T10:49:26.259Z,37.57
2023-07-24T10:53:29.866Z,37.96
2023-07-24T10:57:34.688Z,38.17
2023-07-24T11:01:38.186Z,38.34
2023-07-24T11:05:43.137Z,38.48
2023-07-24T11:09:46.645Z,38.45
2023-07-24T11:13:51.374Z,38.25
2023-07-24T11:17:54.631Z,37.91
2023-07-24T11:21:59.935Z,37.56
2023-07-24T11:26:05.288Z,37.31
2023-07-24T11:30:11.239Z,37.20
2023-07-24T11:34:15.509Z,37.09
2023-07-24T11:38:19.277Z,36.91
2023-07-24T11:42:22.492Z,36.79
2023-07-24T11:46:28.021Z,36.68
2023-07-24T11:50:31.728Z,36.58
2023-07-24T11:54:36.777Z,36.57
2023-07-24T11:58:40.113Z,36.65
2023-07-24T12:02:45.982Z,36.65
2023-07-24T12:06:49.285Z,36.66
2023-07-24T12:10:52.735Z,36.65
2023-07-24T12:14:55.850Z,36.52
2023-07-24T12:19:00.789Z,36.40
2023-07-24T12:23:04.444Z,36.27
2023-07-24T12:27:08.070Z,36.18
2023-07-24T12:31:11.360Z,36.11
2023-07-24T12:35:17.295Z,36.03
2023-07-24T12:39:20.625Z,36.00
2023-07-24T12:43:23.741Z,36.01
2023-07-24T12:47:27.038Z,36.11
2023-07-24T12:51:31.776Z,36.22
2023-07-24T12:55:35.307Z,36.32
2023-07-24T12:59:38.684Z,36.43
2023-07-24T13:03:42.040Z,36.49
2023-07-24T13:07:47.771Z,36.63
2023-07-24T13:11:52.980Z,36.78
2023-07-24T13:15:56.202Z,36.93
2023-07-24T13:19:59.442Z,37.15
2023-07-24T13:24:04.066Z,37.36
2023-07-24T13:28:07.368Z,37.47
2023-07-24T13:32:11.184Z,37.48
2023-07-24T13:36:15.232Z,37.45
2023-07-24T13:40:20.114Z,37.45
2023-07-24T13:44:23.506Z,37.52
2023-07-24T13:48:26.955Z,37.53
2023-07-24T13:52:30.082Z,37.50
2023-07-24T13:56:37.207Z,37.53
2023-07-24T14:00:40.759Z,37.66
2023-07-24T14:04:43.764Z,37.89
2023-07-24T14:08:46.909Z,38.16
2023-07-24T14:12:51.581Z,38.44
2023-07-24T14:16:54.741Z,38.58
2023-07-24T14:20:58.075Z,38.62
2023-07-24T14:25:01.744Z,38.57
2023-07-24T14:29:06.348Z,38.39
2023-07-24T14:33:09.593Z,38.10
2023-07-24T14:37:12.846Z,37.71
2023-07-24T14:41:17.011Z,37.24
2023-07-24T14:45:22.046Z,36.77
2023-07-24T14:49:25.181Z,36.30
2023-07-24T14:53:28.513Z,35.91
2023-07-24T14:57:31.493Z,35.59
2023-07-24T15:01:36.514Z,35.29
2023-07-24T15:05:40.085Z,34.92
2023-07-24T15:09:44.580Z,34.52
2023-07-24T15:13:48.325Z,34.10
2023-07-24T15:17:53.253Z,33.68
2023-07-24T15:21:56.958Z,33.27
2023-07-24T15:26:01.220Z,32.89
2023-07-24T15:30:04.439Z,32.55
2023-07-24T15:34:09.696Z,32.22
2023-07-24T15:38:13.846Z,31.94
2023-07-24T15:42:17.097Z,31.65
2023-07-24T15:46:20.268Z,31.27
2023-07-24T15:50:25.033Z,30.78
2023-07-24T15:54:28.496Z,30.17
2023-07-24T15:58:34.256Z,29.55
2023-07-24T16:02:37.635Z,28.93
2023-07-24T16:06:42.168Z,28.23
2023-07-24T16:10:47.724Z,27.51
2023-07-24T16:14:51.394Z,26.67
2023-07-24T16:19:13.814Z,25.95
2023-07-24T16:23:18.595Z,25.35
2023-07-24T16:27:24.036Z,24.89
2023-07-24T16:31:34.977Z,24.59
2023-07-24T17:18:44.268Z,24.23
2023-07-24T17:35:34.447Z,24.70
2023-07-24T17:39:37.448Z,24.68
2023-07-24T17:43:40.921Z,24.60
2023-07-24T17:47:44.220Z,24.47
2023-07-24T17:51:49.258Z,24.35
2023-07-24T17:55:52.428Z,24.21
2023-07-24T17:59:55.859Z,24.08
2023-07-24T18:03:59.019Z,23.97
2023-07-24T18:08:05.487Z,23.88
2023-07-24T18:12:09.460Z,23.80
2023-07-24T18:16:17.565Z,23.72
2023-07-24T18:20:25.758Z,23.66
2023-07-24T18:24:33.810Z,23.58
2023-07-24T18:28:36.868Z,23.49
2023-07-24T18:32:44.588Z,23.37
2023-07-24T18:36:47.807Z,23.27
2023-07-24T18:40:52.978Z,23.17
2023-07-24T18:44:56.052Z,23.07
2023-07-24T18:49:04.712Z,22.98
2023-07-24T18:53:07.733Z,22.92
2023-07-24T18:57:14.647Z,22.81
2023-07-24T19:01:18.073Z,22.68
2023-07-24T19:05:21.756Z,22.60
2023-07-24T19:09:25.306Z,22.53
2023-07-24T19:13:37.089Z,22.49
2023-07-24T19:17:54.524Z,22.42
2023-07-24T19:21:59.481Z,22.43
2023-07-24T19:26:02.722Z,22.43
2023-07-24T19:30:15.024Z,22.47
2023-07-24T19:34:21.341Z,22.51
2023-07-24T19:38:24.831Z,22.56
2023-07-24T19:42:38.308Z,22.62
2023-07-24T19:46:43.551Z,22.69
2023-07-24T19:50:56.130Z,22.74
2023-07-24T19:55:00.124Z,22.79
2023-07-24T19:59:03.183Z,22.79
2023-07-24T20:03:19.293Z,22.75
2023-07-24T20:07:22.904Z,22.74
2023-07-24T20:11:27.612Z,22.67
2023-07-24T20:15:30.642Z,22.60
2023-07-24T20:19:38.068Z,22.51
2023-07-24T20:23:43.229Z,22.43
2023-07-24T20:27:46.933Z,22.41
2023-07-24T20:31:50.177Z,22.39
2023-07-24T20:35:55.444Z,22.38
2023-07-24T20:39:58.646Z,22.41
2023-07-24T20:44:03.256Z,22.42
2023-07-24T20:48:08.474Z,22.44
2023-07-24T20:52:13.456Z,22.47
2023-07-24T20:56:18.437Z,22.46
2023-07-24T21:00:21.874Z,22.44
2023-07-24T21:04:25.396Z,22.43
2023-07-24T21:08:30.260Z,22.44
2023-07-24T21:12:33.812Z,22.44
2023-07-24T21:16:36.974Z,22.45
2023-07-24T21:20:42.371Z,22.46
2023-07-24T21:24:47.131Z,22.45
2023-07-24T21:28:50.613Z,22.42
2023-07-24T21:32:54.302Z,22.39
2023-07-24T21:36:57.564Z,22.35
2023-07-24T21:41:02.074Z,22.31
2023-07-24T21:45:06.306Z,22.24
2023-07-24T21:49:09.281Z,22.16
2023-07-24T21:53:12.450Z,22.09
2023-07-24T21:57:17.528Z,22.02
2023-07-24T22:01:22.441Z,21.96
2023-07-24T22:05:25.575Z,21.89
2023-07-24T22:09:29.071Z,21.81
2023-07-24T22:13:33.689Z,21.77
2023-07-24T22:17:37.927Z,21.71
2023-07-24T22:21:41.632Z,21.64
2023-07-24T22:25:45.097Z,21.58
2023-07-24T22:29:50.361Z,21.52
2023-07-24T22:33:53.734Z,21.46
2023-07-24T22:37:57.928Z,21.42
2023-07-24T22:42:02.542Z,21.40
2023-07-24T22:46:07.118Z,21.39
2023-07-24T22:50:11.551Z,21.34
2023-07-24T22:54:14.769Z,21.32
2023-07-24T22:58:18.162Z,21.32
2023-07-24T23:02:22.932Z,21.33
2023-07-24T23:06:26.957Z,21.36
2023-07-24T23:10:30.005Z,21.40
2023-07-24T23:14:33.777Z,21.45
2023-07-24T23:18:39.069Z,21.51
2023-07-24T23:22:42.754Z,21.60
2023-07-24T23:26:45.769Z,21.68
2023-07-24T23:30:50.502Z,21.77
2023-07-24T23:34:54.978Z,21.85
2023-07-24T23:38:58.393Z,21.91
2023-07-24T23:43:01.784Z,21.96
2023-07-24T23:47:05.451Z,22.00
2023-07-24T23:51:16.284Z,22.03
2023-07-24T23:55:20.003Z,22.03
2023-07-24T23:59:23.081Z,22.01
